createdAt,value
2023-10-10T00:01:56.289Z,15.92
2023-10-10T00:04:41.264Z,15.91
2023-10-10T00:07:26.233Z,15.90
2023-10-10T00:10:11.278Z,15.91
2023-10-10T00:12:56.438Z,15.80
2023-10-10T00:15:41.507Z,15.71
2023-10-10T00:18:26.572Z,15.74
2023-10-10T00:21:11.651Z,15.56
2023-10-10T00:23:56.824Z,15.58
2023-10-10T00:26:41.805Z,15.39
2023-10-10T00:32:21.908Z,15.38
2023-10-10T00:35:06.549Z,14.83
2023-10-10T00:37:51.612Z,14.94
2023-10-10T00:40:36.586Z,15.12
2023-10-10T00:43:21.520Z,15.13
2023-10-10T00:46:06.505Z,15.14
2023-10-10T00:48:51.609Z,15.09
2023-10-10T00:51:36.620Z,15.12
2023-10-10T00:54:21.537Z,15.13
2023-10-10T00:57:06.499Z,14.94
2023-10-10T00:59:51.491Z,14.80
2023-10-10T01:02:36.671Z,14.76
2023-10-10T01:05:21.636Z,14.68
2023-10-10T01:08:06.514Z,14.65
2023-10-10T01:10:51.474Z,14.80
2023-10-10T01:13:36.352Z,14.74
2023-10-10T01:16:21.194Z,14.63
2023-10-10T01:19:06.126Z,14.73
2023-10-10T01:21:51.263Z,14.76
2023-10-10T01:24:36.127Z,14.78
2023-10-10T01:27:21.243Z,14.77
2023-10-10T01:30:05.875Z,14.86
2023-10-10T01:32:51.050Z,14.81
2023-10-10T01:35:36.049Z,14.24
2023-10-10T01:38:21.236Z,14.16
2023-10-10T01:41:06.366Z,13.94
2023-10-10T01:43:51.333Z,14.31
2023-10-10T01:46:36.491Z,14.62
2023-10-10T01:49:21.321Z,14.56
2023-10-10T01:52:06.381Z,14.64
2023-10-10T01:54:51.287Z,14.76
2023-10-10T01:57:36.308Z,14.34
2023-10-10T02:00:21.247Z,14.30
2023-10-10T02:03:06.236Z,14.27
2023-10-10T02:05:51.113Z,14.58
2023-10-10T02:08:35.953Z,14.12
2023-10-10T02:11:20.976Z,14.49
2023-10-10T02:14:05.855Z,14.62
2023-10-10T02:16:50.782Z,14.72
2023-10-10T02:19:38.347Z,14.78
2023-10-10T02:22:23.771Z,14.73
2023-10-10T02:25:08.851Z,14.39
2023-10-10T02:27:53.736Z,14.57
2023-10-10T02:30:38.790Z,14.59
2023-10-10T02:33:23.717Z,14.54
2023-10-10T02:36:08.743Z,14.55
2023-10-10T02:38:53.752Z,14.54
2023-10-10T02:41:38.786Z,14.50
2023-10-10T02:44:23.917Z,14.54
2023-10-10T02:47:08.853Z,14.25
2023-10-10T02:49:53.831Z,14.16
2023-10-10T02:52:38.763Z,13.81
2023-10-10T02:55:23.996Z,13.78
2023-10-10T02:58:09.346Z,13.76
2023-10-10T03:00:54.358Z,13.79
2023-10-10T03:03:39.650Z,14.09
2023-10-10T03:06:24.422Z,14.15
2023-10-10T03:09:09.466Z,14.18
2023-10-10T03:11:54.285Z,14.20
2023-10-10T03:14:39.373Z,14.01
2023-10-10T03:17:24.227Z,13.93
2023-10-10T03:20:09.068Z,13.81
2023-10-10T03:22:54.136Z,14.11
2023-10-10T03:25:39.050Z,14.20
2023-10-10T03:28:24.096Z,14.04
2023-10-10T03:31:08.993Z,13.72
2023-10-10T03:33:54.028Z,13.89
2023-10-10T03:36:38.990Z,13.78
2023-10-10T03:39:24.018Z,13.90
2023-10-10T03:42:08.934Z,13.54
2023-10-10T03:44:53.980Z,13.56
2023-10-10T03:47:39.107Z,13.63
2023-10-10T03:50:23.976Z,13.17
2023-10-10T03:53:09.045Z,13.10
2023-10-10T03:55:53.967Z,13.21
2023-10-10T03:58:38.951Z,13.79
2023-10-10T04:01:23.967Z,13.80
2023-10-10T04:04:08.973Z,13.88
2023-10-10T04:06:53.892Z,13.92
2023-10-10T04:09:39.004Z,13.99
2023-10-10T04:12:24.085Z,14.04
2023-10-10T04:15:09.112Z,14.03
2023-10-10T04:17:54.120Z,13.83
2023-10-10T04:20:39.024Z,14.00
2023-10-10T04:23:24.039Z,14.02
2023-10-10T04:26:08.910Z,13.91
2023-10-10T04:28:53.880Z,13.89
2023-10-10T04:31:38.994Z,13.78
2023-10-10T04:34:23.878Z,13.50
2023-10-10T04:37:08.984Z,13.67
2023-10-10T04:39:53.821Z,13.38
2023-10-10T04:42:38.992Z,13.38
2023-10-10T04:45:23.872Z,13.72
2023-10-10T04:48:08.992Z,13.74
2023-10-10T04:50:53.939Z,13.54
2023-10-10T04:53:38.931Z,13.32
2023-10-10T04:56:23.939Z,13.29
2023-10-10T04:59:08.824Z,13.16
2023-10-10T05:01:53.979Z,13.22
2023-10-10T05:04:38.968Z,12.90
2023-10-10T05:07:23.977Z,13.14
2023-10-10T05:10:09.282Z,13.30
2023-10-10T05:12:54.362Z,13.23
2023-10-10T05:15:39.359Z,13.20
2023-10-10T05:18:24.467Z,13.35
2023-10-10T05:21:09.493Z,13.38
2023-10-10T05:23:54.402Z,13.43
2023-10-10T05:26:39.392Z,13.50
2023-10-10T05:29:24.242Z,13.48
2023-10-10T05:32:09.274Z,13.46
2023-10-10T05:34:55.281Z,13.41
2023-10-10T05:37:41.263Z,12.75
2023-10-10T05:40:26.377Z,12.64
2023-10-10T05:43:11.370Z,13.13
2023-10-10T05:45:56.542Z,13.22
2023-10-10T05:48:41.430Z,13.27
2023-10-10T05:51:26.544Z,13.04
2023-10-10T05:54:11.574Z,13.33
2023-10-10T05:56:56.467Z,13.20
2023-10-10T05:59:41.567Z,13.18
2023-10-10T06:02:26.697Z,13.23
2023-10-10T06:05:11.426Z,13.45
2023-10-10T06:07:56.088Z,13.53
2023-10-10T06:10:41.083Z,13.49
2023-10-10T06:13:26.122Z,13.58
2023-10-10T06:16:11.149Z,13.52
2023-10-10T06:18:56.246Z,13.07
2023-10-10T06:21:41.208Z,12.78
2023-10-10T06:24:26.305Z,13.28
2023-10-10T06:27:11.342Z,13.42
2023-10-10T06:29:56.380Z,13.38
2023-10-10T06:32:41.565Z,13.05
2023-10-10T06:35:26.786Z,13.14
2023-10-10T06:38:11.742Z,13.23
2023-10-10T06:40:56.770Z,13.40
2023-10-10T06:43:41.796Z,13.36
2023-10-10T06:46:26.774Z,13.42
2023-10-10T06:49:11.907Z,13.15
2023-10-10T06:51:56.980Z,13.22
2023-10-10T06:54:41.985Z,13.34
2023-10-10T06:57:26.983Z,13.29
2023-10-10T07:00:12.061Z,13.28
2023-10-10T07:02:57.319Z,13.47
2023-10-10T07:05:42.226Z,13.69
2023-10-10T07:08:27.299Z,14.09
2023-10-10T07:11:12.292Z,14.37
2023-10-10T07:13:57.339Z,14.69
2023-10-10T07:16:42.245Z,14.89
2023-10-10T07:19:27.249Z,15.12
2023-10-10T07:22:12.108Z,15.39
2023-10-10T07:24:57.274Z,15.64
2023-10-10T07:27:42.370Z,15.90
2023-10-10T07:30:27.332Z,16.13
2023-10-10T07:33:12.338Z,16.32
2023-10-10T07:35:57.324Z,16.52
2023-10-10T07:38:42.462Z,16.72
2023-10-10T07:41:27.414Z,16.86
2023-10-10T07:44:12.376Z,17.04
2023-10-10T07:46:57.480Z,17.15
2023-10-10T07:49:42.382Z,17.26
2023-10-10T07:52:27.500Z,17.37
2023-10-10T07:55:12.613Z,17.42
2023-10-10T07:57:57.437Z,17.54
2023-10-10T08:00:42.446Z,17.66
2023-10-10T08:03:27.507Z,17.75
2023-10-10T08:06:12.487Z,17.75
2023-10-10T08:08:57.505Z,17.90
2023-10-10T08:11:42.755Z,18.01
2023-10-10T08:14:27.745Z,18.06
2023-10-10T08:17:12.805Z,18.08
2023-10-10T08:19:57.620Z,18.18
2023-10-10T08:22:42.732Z,18.20
2023-10-10T08:25:27.541Z,18.30
2023-10-10T08:28:12.473Z,18.46
2023-10-10T08:30:57.458Z,18.54
2023-10-10T08:33:42.564Z,18.61
2023-10-10T08:36:27.775Z,18.65
2023-10-10T08:39:12.696Z,18.62
2023-10-10T08:41:57.744Z,18.74
2023-10-10T08:44:42.782Z,18.87
2023-10-10T08:47:27.795Z,18.93
2023-10-10T08:50:12.817Z,19.07
2023-10-10T08:52:57.875Z,19.07
2023-10-10T08:55:43.034Z,19.16
2023-10-10T08:58:27.932Z,19.24
2023-10-10T09:01:12.864Z,19.27
2023-10-10T09:03:57.922Z,19.26
2023-10-10T09:06:42.879Z,19.36
2023-10-10T09:09:27.878Z,19.33
2023-10-10T09:12:12.608Z,19.44
2023-10-10T09:14:57.710Z,19.43
2023-10-10T09:17:42.824Z,19.51
2023-10-10T09:20:27.841Z,19.52
2023-10-10T09:23:13.103Z,19.51
2023-10-10T09:25:58.370Z,19.63
2023-10-10T09:28:43.446Z,19.56
2023-10-10T09:31:28.375Z,19.67
2023-10-10T09:34:13.552Z,19.75
2023-10-10T09:36:58.579Z,19.73
2023-10-10T09:39:43.610Z,19.79
2023-10-10T09:42:28.521Z,19.82
2023-10-10T09:45:13.485Z,19.96
2023-10-10T09:47:58.719Z,19.93
2023-10-10T09:50:43.439Z,19.98
2023-10-10T09:53:28.592Z,20.10
2023-10-10T09:56:13.668Z,20.21
2023-10-10T09:58:58.650Z,20.17
2023-10-10T10:01:43.616Z,20.12
2023-10-10T10:04:28.658Z,20.22
2023-10-10T10:07:13.693Z,20.31
2023-10-10T10:09:58.803Z,20.43
2023-10-10T10:12:43.695Z,20.40
2023-10-10T10:15:28.813Z,20.53
2023-10-10T10:18:13.963Z,20.46
2023-10-10T10:20:58.733Z,20.53
2023-10-10T10:23:44.008Z,20.55
2023-10-10T10:26:28.913Z,20.63
2023-10-10T10:29:13.883Z,20.60
2023-10-10T10:31:59.237Z,20.62
2023-10-10T10:34:44.437Z,20.64
2023-10-10T10:37:29.330Z,20.65
2023-10-10T10:40:14.264Z,20.67
2023-10-10T10:42:59.438Z,20.65
2023-10-10T10:45:44.491Z,20.72
2023-10-10T10:48:29.562Z,20.75
2023-10-10T10:51:14.320Z,20.83
2023-10-10T10:53:59.190Z,20.77
2023-10-10T10:56:47.756Z,20.88
2023-10-10T10:59:36.173Z,20.87
2023-10-10T11:02:21.286Z,20.92
2023-10-10T11:05:06.339Z,20.80
2023-10-10T11:07:51.370Z,20.92
2023-10-10T11:10:36.474Z,21.01
2023-10-10T11:13:21.396Z,21.03
2023-10-10T11:16:06.438Z,21.07
2023-10-10T11:18:51.409Z,21.17
2023-10-10T11:21:36.425Z,21.01
2023-10-10T11:24:21.398Z,21.14
2023-10-10T11:27:06.516Z,21.26
2023-10-10T11:29:51.551Z,21.23
2023-10-10T11:32:36.526Z,21.31
2023-10-10T11:35:21.623Z,21.41
2023-10-10T11:38:06.684Z,21.35
2023-10-10T11:40:51.679Z,21.42
2023-10-10T11:43:36.652Z,21.50
2023-10-10T11:46:21.691Z,21.51
2023-10-10T11:49:06.686Z,21.48
2023-10-10T11:51:51.670Z,21.45
2023-10-10T11:54:36.899Z,21.53
2023-10-10T11:57:21.980Z,21.55
2023-10-10T12:00:20.273Z,21.49
2023-10-10T12:03:11.850Z,21.46
2023-10-10T12:05:56.724Z,21.53
2023-10-10T12:08:41.860Z,21.54
2023-10-10T12:11:26.910Z,21.58
2023-10-10T12:14:11.971Z,21.57
2023-10-10T12:16:56.924Z,21.61
2023-10-10T12:19:41.952Z,21.61
2023-10-10T12:22:27.058Z,21.66
2023-10-10T12:25:12.086Z,21.66
2023-10-10T12:27:57.331Z,21.68
2023-10-10T12:30:42.262Z,21.75
2023-10-10T12:33:27.540Z,21.67
2023-10-10T12:36:12.345Z,21.76
2023-10-10T12:38:57.425Z,21.67
2023-10-10T12:41:42.469Z,21.80
2023-10-10T12:44:27.541Z,21.84
2023-10-10T12:47:14.931Z,21.84
2023-10-10T12:50:00.499Z,21.91
2023-10-10T12:52:45.745Z,21.91
2023-10-10T12:55:30.844Z,21.85
2023-10-10T12:58:15.868Z,21.93
2023-10-10T13:01:01.039Z,21.98
2023-10-10T13:03:46.072Z,22.00
2023-10-10T13:06:31.064Z,21.98
2023-10-10T13:09:16.069Z,22.04
2023-10-10T13:12:01.088Z,22.07
2023-10-10T13:14:46.098Z,22.07
2023-10-10T13:17:31.432Z,22.03
2023-10-10T13:20:16.617Z,22.07
2023-10-10T13:23:01.513Z,21.99
2023-10-10T13:25:46.697Z,22.00
2023-10-10T13:28:31.653Z,21.94
2023-10-10T13:31:16.606Z,21.92
2023-10-10T13:34:01.542Z,21.94
2023-10-10T13:36:46.608Z,21.90
2023-10-10T13:39:31.553Z,21.98
2023-10-10T13:42:16.589Z,21.98
2023-10-10T13:45:01.781Z,21.97
2023-10-10T13:47:46.887Z,21.89
2023-10-10T13:50:32.038Z,21.74
2023-10-10T13:53:17.069Z,21.80
2023-10-10T13:56:01.947Z,21.83
2023-10-10T13:58:46.749Z,21.82
2023-10-10T14:01:31.804Z,21.76
2023-10-10T14:04:17.696Z,21.82
2023-10-10T14:07:02.912Z,21.81
2023-10-10T14:10:01.727Z,21.78
2023-10-10T14:12:47.557Z,21.75
2023-10-10T14:15:32.495Z,21.77
2023-10-10T14:18:17.649Z,21.71
2023-10-10T14:21:02.696Z,21.76
2023-10-10T14:23:47.596Z,21.78
2023-10-10T14:26:32.587Z,21.77
2023-10-10T14:29:18.304Z,21.78
2023-10-10T14:32:04.925Z,21.77
2023-10-10T14:34:49.810Z,21.77
2023-10-10T14:37:49.974Z,21.74
2023-10-10T14:40:39.887Z,21.69
2023-10-10T14:43:24.913Z,21.66
2023-10-10T14:46:09.932Z,21.67
2023-10-10T14:48:54.987Z,21.66
2023-10-10T14:51:39.990Z,21.61
2023-10-10T14:54:25.058Z,21.60
2023-10-10T14:57:10.084Z,21.58
2023-10-10T14:59:55.074Z,21.54
2023-10-10T15:02:40.126Z,21.43
2023-10-10T15:05:25.007Z,21.39
2023-10-10T15:08:09.874Z,21.33
2023-10-10T15:10:54.869Z,21.32
2023-10-10T15:13:39.962Z,21.27
2023-10-10T15:16:25.125Z,21.14
2023-10-10T15:19:10.186Z,21.04
2023-10-10T15:21:55.358Z,20.90
2023-10-10T15:24:42.570Z,20.81
2023-10-10T15:27:28.236Z,20.72
2023-10-10T15:30:13.331Z,20.69
2023-10-10T15:32:58.453Z,20.65
2023-10-10T15:35:43.734Z,20.63
2023-10-10T15:38:28.697Z,20.55
2023-10-10T15:41:13.698Z,20.37
2023-10-10T15:43:58.560Z,20.27
2023-10-10T15:46:44.336Z,20.25
2023-10-10T15:49:36.516Z,20.17
2023-10-10T15:52:22.427Z,20.12
2023-10-10T15:55:07.435Z,20.11
2023-10-10T15:57:52.500Z,19.97
2023-10-10T16:00:37.455Z,19.96
2023-10-10T16:03:22.673Z,19.94
2023-10-10T16:06:07.639Z,19.85
2023-10-10T16:08:52.714Z,19.83
2023-10-10T16:11:37.909Z,19.80
2023-10-10T16:14:22.965Z,19.64
2023-10-10T16:17:07.773Z,19.71
2023-10-10T16:19:52.792Z,19.67
2023-10-10T16:22:40.073Z,19.69
2023-10-10T16:25:27.059Z,19.57
2023-10-10T16:28:11.969Z,19.46
2023-10-10T16:30:57.071Z,19.48
2023-10-10T16:33:42.122Z,19.46
2023-10-10T16:36:27.197Z,19.29
2023-10-10T16:39:12.381Z,19.23
2023-10-10T16:41:57.265Z,18.98
2023-10-10T16:44:42.383Z,18.84
2023-10-10T16:47:27.323Z,18.80
2023-10-10T16:50:12.460Z,18.70
2023-10-10T16:53:10.032Z,18.63
2023-10-10T16:55:56.024Z,18.73
2023-10-10T16:58:40.956Z,18.70
2023-10-10T17:01:26.042Z,18.58
2023-10-10T17:04:11.077Z,18.54
2023-10-10T17:06:56.023Z,18.45
2023-10-10T17:09:41.057Z,18.51
2023-10-10T17:12:26.066Z,18.43
2023-10-10T17:15:11.203Z,18.51
2023-10-10T17:17:56.169Z,18.50
2023-10-10T17:20:41.028Z,18.51
2023-10-10T17:23:25.998Z,18.55
2023-10-10T17:26:10.905Z,18.32
2023-10-10T17:28:55.931Z,18.41
2023-10-10T17:31:40.902Z,18.29
2023-10-10T17:34:25.866Z,18.19
2023-10-10T17:37:10.924Z,18.20
2023-10-10T17:39:56.051Z,18.18
2023-10-10T17:42:40.964Z,18.11
2023-10-10T17:45:25.933Z,18.19
2023-10-10T17:48:10.996Z,18.11
2023-10-10T17:50:55.738Z,18.15
2023-10-10T17:53:40.608Z,18.01
2023-10-10T17:56:25.696Z,17.86
2023-10-10T17:59:10.492Z,17.97
2023-10-10T18:01:55.395Z,17.84
2023-10-10T18:04:40.469Z,17.28
2023-10-10T18:07:25.565Z,17.49
2023-10-10T18:10:10.249Z,17.53
2023-10-10T18:12:55.248Z,17.61
2023-10-10T18:15:40.180Z,17.72
2023-10-10T18:18:25.357Z,17.67
2023-10-10T18:21:10.247Z,17.52
2023-10-10T18:23:55.329Z,17.31
2023-10-10T18:26:40.169Z,17.55
2023-10-10T18:29:25.180Z,17.40
2023-10-10T18:32:10.024Z,17.38
2023-10-10T18:34:54.896Z,17.32
2023-10-10T18:37:39.920Z,17.05
2023-10-10T18:40:24.904Z,17.21
2023-10-10T18:43:10.016Z,17.10
2023-10-10T18:45:55.014Z,16.82
2023-10-10T18:48:40.158Z,17.05
2023-10-10T18:51:25.029Z,17.04
2023-10-10T18:54:10.174Z,17.05
2023-10-10T18:56:55.086Z,17.05
2023-10-10T18:59:40.102Z,17.06
2023-10-10T19:02:25.219Z,17.05
2023-10-10T19:05:10.213Z,17.04
2023-10-10T19:07:55.252Z,16.87
2023-10-10T19:10:39.881Z,16.86
2023-10-10T19:13:24.958Z,16.86
2023-10-10T19:16:09.927Z,16.87
2023-10-10T19:18:54.991Z,16.79
2023-10-10T19:21:40.003Z,16.82
2023-10-10T19:24:25.119Z,16.69
2023-10-10T19:27:10.225Z,16.65
2023-10-10T19:29:55.084Z,16.64
2023-10-10T19:32:41.223Z,16.66
2023-10-10T19:35:26.080Z,16.53
2023-10-10T19:38:10.766Z,16.51
2023-10-10T19:40:55.693Z,16.53
2023-10-10T19:43:40.747Z,16.55
2023-10-10T19:46:25.974Z,16.54
2023-10-10T19:49:11.176Z,16.55
2023-10-10T19:51:56.423Z,16.48
2023-10-10T19:54:41.429Z,16.46
2023-10-10T19:57:26.747Z,16.50
2023-10-10T20:00:11.776Z,16.48
2023-10-10T20:02:56.883Z,16.54
2023-10-10T20:05:42.497Z,16.57
2023-10-10T20:08:27.351Z,16.25
2023-10-10T20:11:12.520Z,16.13
2023-10-10T20:13:57.444Z,16.30
2023-10-10T20:16:42.616Z,16.36
2023-10-10T20:19:27.540Z,16.14
2023-10-10T20:22:12.453Z,15.82
2023-10-10T20:24:57.330Z,15.91
2023-10-10T20:27:42.363Z,16.10
2023-10-10T20:30:27.436Z,15.91
2023-10-10T20:33:12.487Z,16.05
2023-10-10T20:35:57.518Z,15.79
2023-10-10T20:38:42.475Z,15.79
2023-10-10T20:41:27.345Z,15.97
2023-10-10T20:44:12.375Z,16.04
2023-10-10T20:46:57.437Z,16.04
2023-10-10T20:49:42.398Z,16.08
2023-10-10T20:52:27.482Z,16.10
2023-10-10T20:55:12.626Z,16.09
2023-10-10T20:57:57.443Z,16.04
2023-10-10T21:00:42.520Z,16.06
2023-10-10T21:03:27.525Z,16.03
2023-10-10T21:06:12.889Z,16.06
2023-10-10T21:08:58.300Z,16.07
2023-10-10T21:11:43.181Z,16.06
2023-10-10T21:14:28.117Z,15.82
2023-10-10T21:17:13.117Z,15.93
2023-10-10T21:19:58.169Z,15.95
2023-10-10T21:22:43.157Z,15.70
2023-10-10T21:25:28.141Z,15.69
2023-10-10T21:28:13.076Z,15.71
2023-10-10T21:30:58.056Z,15.69
2023-10-10T21:33:43.191Z,15.73
2023-10-10T21:36:28.009Z,15.74
2023-10-10T21:39:13.003Z,15.77
2023-10-10T21:41:57.854Z,15.71
2023-10-10T21:44:42.846Z,15.63
2023-10-10T21:47:27.815Z,15.44
2023-10-10T21:50:12.864Z,15.37
2023-10-10T21:52:57.823Z,15.23
2023-10-10T21:55:42.791Z,15.35
2023-10-10T21:58:27.689Z,15.38
2023-10-10T22:01:12.740Z,15.32
2023-10-10T22:03:57.938Z,15.40
2023-10-10T22:06:42.703Z,15.29
2023-10-10T22:09:27.697Z,15.12
2023-10-10T22:12:12.646Z,15.31
2023-10-10T22:14:57.622Z,15.19
2023-10-10T22:17:42.534Z,15.24
2023-10-10T22:20:27.449Z,15.32
2023-10-10T22:23:12.660Z,15.41
2023-10-10T22:25:57.621Z,15.41
2023-10-10T22:28:42.699Z,15.17
2023-10-10T22:31:27.660Z,15.22
2023-10-10T22:34:12.612Z,15.23
2023-10-10T22:37:07.867Z,15.31
2023-10-10T22:39:53.486Z,14.89
2023-10-10T22:42:38.466Z,15.12
2023-10-10T22:45:23.368Z,15.22
2023-10-10T22:48:08.276Z,15.20
2023-10-10T22:50:53.113Z,15.15
2023-10-10T22:53:38.061Z,15.15
2023-10-10T22:56:22.908Z,15.11
2023-10-10T22:59:08.002Z,15.02
2023-10-10T23:01:52.965Z,14.75
2023-10-10T23:04:38.163Z,14.51
2023-10-10T23:07:23.065Z,14.68
2023-10-10T23:10:07.909Z,14.86
2023-10-10T23:12:52.873Z,14.66
2023-10-10T23:15:38.687Z,13.99
2023-10-10T23:18:24.019Z,13.89
2023-10-10T23:21:08.974Z,14.34
2023-10-10T23:23:54.046Z,14.45
2023-10-10T23:26:39.013Z,14.41
2023-10-10T23:29:24.036Z,14.36
2023-10-10T23:32:09.017Z,14.49
2023-10-10T23:34:54.032Z,14.31
2023-10-10T23:37:39.029Z,14.59
2023-10-10T23:40:23.994Z,14.65
2023-10-10T23:43:08.963Z,14.14
2023-10-10T23:45:53.961Z,14.61
2023-10-10T23:48:39.081Z,14.66
2023-10-10T23:51:23.956Z,14.48
2023-10-10T23:54:09.131Z,14.74
2023-10-10T23:56:53.984Z,14.76
2023-10-10T23:59:38.847Z,14.65
